createdAt,value
2019-03-01T00:00:48.799Z,19.90
2019-03-01T00:03:17.157Z,22.15
2019-03-01T00:05:54.411Z,25.72
2019-03-01T00:08:26.803Z,19.25
2019-03-01T00:11:10.363Z,23.52
2019-03-01T00:13:47.808Z,20.32
2019-03-01T00:16:53.758Z,22.90
2019-03-01T00:19:36.249Z,22.15
2019-03-01T00:22:17.122Z,22.13
2019-03-01T00:24:55.784Z,20.95
2019-03-01T00:27:31.851Z,22.95
2019-03-01T00:30:04.570Z,20.23
2019-03-01T00:32:40.424Z,22.52
2019-03-01T00:35:26.389Z,20.88
2019-03-01T00:38:12.365Z,23.35
2019-03-01T00:40:54.896Z,21.02
2019-03-01T00:43:31.038Z,22.93
2019-03-01T00:45:59.972Z,22.30
2019-03-01T00:48:29.984Z,25.43
2019-03-01T00:50:58.560Z,21.02
2019-03-01T00:53:27.409Z,27.40
2019-03-01T00:55:55.862Z,21.80
2019-03-01T00:58:24.516Z,22.95
2019-03-01T01:00:52.853Z,24.07
2019-03-01T01:03:21.033Z,24.05
2019-03-01T01:05:49.571Z,21.50
2019-03-01T01:08:17.756Z,22.45
2019-03-01T01:10:46.225Z,19.63
2019-03-01T01:13:14.991Z,28.02
2019-03-01T01:15:43.854Z,24.32
2019-03-01T01:18:12.592Z,23.87
2019-03-01T01:20:40.786Z,21.65
2019-03-01T01:23:09.247Z,27.00
2019-03-01T01:25:37.578Z,26.50
2019-03-01T01:28:06.023Z,25.77
2019-03-01T01:30:35.028Z,23.05
2019-03-01T01:33:03.649Z,25.17
2019-03-01T01:35:32.382Z,25.45
2019-03-01T01:38:00.972Z,28.07
2019-03-01T01:40:29.335Z,21.50
2019-03-01T01:42:57.806Z,25.10
2019-03-01T01:45:25.933Z,25.15
2019-03-01T01:47:54.615Z,25.52
2019-03-01T01:50:23.599Z,26.20
2019-03-01T01:52:52.157Z,24.75
2019-03-01T01:55:20.369Z,23.23
2019-03-01T01:57:49.437Z,23.50
2019-03-01T02:00:17.527Z,24.87
2019-03-01T02:02:45.654Z,24.98
2019-03-01T02:05:13.712Z,24.60
2019-03-01T02:07:42.123Z,26.25
2019-03-01T02:10:10.812Z,24.55
2019-03-01T02:12:38.830Z,24.82
2019-03-01T02:15:08.551Z,25.95
2019-03-01T02:17:37.512Z,25.95
2019-03-01T02:20:05.996Z,26.90
2019-03-01T02:22:34.272Z,26.55
2019-03-01T02:25:02.684Z,29.27
2019-03-01T02:27:30.873Z,28.60
2019-03-01T02:29:59.915Z,25.57
2019-03-01T02:32:32.702Z,30.48
2019-03-01T02:35:01.166Z,31.30
2019-03-01T02:37:29.599Z,33.63
2019-03-01T02:39:58.301Z,29.87
2019-03-01T02:42:27.225Z,30.77
2019-03-01T02:44:55.592Z,33.48
2019-03-01T02:47:23.747Z,31.65
2019-03-01T02:49:52.013Z,29.33
2019-03-01T02:52:20.532Z,32.93
2019-03-01T02:54:50.407Z,32.73
2019-03-01T02:57:18.597Z,32.48
2019-03-01T02:59:46.991Z,30.08
2019-03-01T03:02:15.897Z,32.17
2019-03-01T03:04:45.396Z,31.13
2019-03-01T03:07:25.725Z,26.75
2019-03-01T03:09:53.732Z,28.83
2019-03-01T03:12:22.221Z,26.10
2019-03-01T03:14:50.379Z,27.17
2019-03-01T03:17:18.612Z,24.82
2019-03-01T03:19:46.789Z,25.30
2019-03-01T03:22:15.279Z,27.32
2019-03-01T03:24:43.796Z,26.02
2019-03-01T03:27:12.018Z,24.25
2019-03-01T03:29:40.557Z,27.00
2019-03-01T03:32:08.743Z,26.80
2019-03-01T03:34:36.984Z,27.15
2019-03-01T03:37:05.313Z,27.98
2019-03-01T03:39:33.917Z,25.23
2019-03-01T03:42:02.504Z,27.82
2019-03-01T03:44:31.207Z,27.93
2019-03-01T03:46:59.854Z,25.65
2019-03-01T03:49:28.818Z,22.20
2019-03-01T03:51:57.735Z,26.48
2019-03-01T03:54:25.921Z,24.30
2019-03-01T03:56:54.385Z,25.95
2019-03-01T03:59:22.749Z,27.30
2019-03-01T04:01:51.431Z,28.90
2019-03-01T04:04:22.156Z,28.15
2019-03-01T04:06:50.010Z,26.37
2019-03-01T04:09:18.925Z,29.57
2019-03-01T04:11:49.007Z,25.17
2019-03-01T04:14:17.088Z,22.62
2019-03-01T04:16:45.631Z,26.40
2019-03-01T04:19:14.283Z,24.10
2019-03-01T04:21:42.973Z,25.50
2019-03-01T04:24:11.018Z,24.55
2019-03-01T04:26:39.076Z,25.27
2019-03-01T04:29:07.229Z,26.12
2019-03-01T04:31:35.406Z,28.83
2019-03-01T04:34:05.993Z,23.25
2019-03-01T04:36:34.591Z,25.80
2019-03-01T04:39:02.956Z,21.50
2019-03-01T04:41:31.835Z,27.22
2019-03-01T04:44:00.376Z,24.32
2019-03-01T04:46:28.848Z,26.05
2019-03-01T04:48:58.823Z,26.35
2019-03-01T04:51:27.044Z,27.07
2019-03-01T04:53:55.620Z,27.58
2019-03-01T04:56:24.588Z,23.42
2019-03-01T04:58:53.539Z,22.35
2019-03-01T05:01:21.560Z,25.12
2019-03-01T05:03:49.740Z,25.00
2019-03-01T05:06:18.348Z,26.75
2019-03-01T05:08:47.112Z,29.67
2019-03-01T05:11:15.224Z,29.85
2019-03-01T05:13:43.597Z,26.70
2019-03-01T05:16:11.696Z,28.00
2019-03-01T05:18:40.321Z,31.23
2019-03-01T05:21:08.789Z,34.08
2019-03-01T05:23:37.267Z,30.20
2019-03-01T05:26:06.521Z,29.42
2019-03-01T05:28:36.407Z,31.77
2019-03-01T05:31:04.830Z,25.27
2019-03-01T05:33:33.488Z,31.13
2019-03-01T05:36:02.655Z,30.35
2019-03-01T05:38:31.274Z,32.63
2019-03-01T05:40:59.639Z,31.30
2019-03-01T05:43:29.681Z,32.08
2019-03-01T05:45:57.767Z,29.65
2019-03-01T05:48:26.190Z,34.00
2019-03-01T05:50:54.309Z,33.23
2019-03-01T05:53:22.788Z,37.85
2019-03-01T05:55:51.456Z,33.25
2019-03-01T05:58:45.199Z,36.75
2019-03-01T06:01:24.623Z,34.30
2019-03-01T06:03:57.092Z,36.28
2019-03-01T06:06:31.701Z,32.53
2019-03-01T06:09:37.529Z,39.13
2019-03-01T06:12:27.714Z,35.40
2019-03-01T06:15:18.549Z,34.70
2019-03-01T06:18:06.458Z,33.80
2019-03-01T06:20:45.191Z,32.75
2019-03-01T06:23:19.155Z,29.20
2019-03-01T06:26:15.499Z,38.33
2019-03-01T06:28:46.634Z,34.98
2019-03-01T06:31:36.861Z,29.98
2019-03-01T06:34:26.615Z,37.58
2019-03-01T06:37:15.400Z,39.25
2019-03-01T06:40:21.165Z,35.83
2019-03-01T06:43:01.941Z,36.30
2019-03-01T06:45:41.080Z,36.03
2019-03-01T06:48:12.868Z,31.95
2019-03-01T06:50:49.156Z,39.00
2019-03-01T06:53:17.343Z,36.23
2019-03-01T06:55:46.495Z,34.50
2019-03-01T06:58:22.281Z,29.40
2019-03-01T07:00:53.858Z,31.93
2019-03-01T07:03:22.457Z,36.45
2019-03-01T07:05:51.145Z,37.05
2019-03-01T07:08:20.308Z,38.75
2019-03-01T07:10:48.821Z,32.93
2019-03-01T07:13:17.891Z,28.50
2019-03-01T07:15:46.303Z,33.48
2019-03-01T07:18:16.013Z,26.97
2019-03-01T07:20:44.397Z,31.52
2019-03-01T07:23:13.741Z,28.80
2019-03-01T07:25:42.548Z,31.10
2019-03-01T07:28:11.941Z,31.05
2019-03-01T07:30:40.158Z,25.00
2019-03-01T07:33:08.784Z,30.45
2019-03-01T07:35:36.957Z,28.15
2019-03-01T07:38:05.764Z,25.32
2019-03-01T07:40:34.256Z,24.20
2019-03-01T07:43:02.461Z,22.05
2019-03-01T07:45:30.639Z,21.70
2019-03-01T07:47:59.536Z,20.85
2019-03-01T07:50:29.097Z,17.42
2019-03-01T07:53:00.228Z,17.20
2019-03-01T07:55:28.402Z,18.85
2019-03-01T07:57:59.300Z,15.98
2019-03-01T08:00:27.756Z,15.00
2019-03-01T08:02:55.872Z,14.73
2019-03-01T08:05:23.900Z,17.25
2019-03-01T08:07:56.171Z,15.78
2019-03-01T08:10:23.310Z,14.58
2019-03-01T08:12:52.085Z,18.90
2019-03-01T08:15:20.472Z,16.67
2019-03-01T08:17:49.150Z,20.27
2019-03-01T08:20:17.299Z,12.40
2019-03-01T08:22:49.013Z,12.13
2019-03-01T08:25:22.528Z,12.20
2019-03-01T08:27:47.800Z,9.33
2019-03-01T08:30:16.228Z,9.13
2019-03-01T08:32:45.885Z,10.90
2019-03-01T08:35:14.464Z,9.40
2019-03-01T08:37:43.150Z,10.03
2019-03-01T08:40:14.697Z,10.88
2019-03-01T08:42:42.300Z,8.18
2019-03-01T08:45:11.664Z,7.97
2019-03-01T08:47:42.032Z,8.60
2019-03-01T08:50:11.375Z,10.58
2019-03-01T08:52:40.386Z,8.58
2019-03-01T08:55:10.342Z,12.00
2019-03-01T08:57:44.260Z,8.08
2019-03-01T09:00:11.610Z,9.45
2019-03-01T09:02:40.152Z,12.00
2019-03-01T09:05:09.935Z,9.83
2019-03-01T09:07:40.448Z,8.08
2019-03-01T09:10:09.760Z,35.68
2019-03-01T09:12:38.574Z,17.17
2019-03-01T09:15:08.287Z,16.17
2019-03-01T09:17:36.782Z,10.30
2019-03-01T09:20:05.718Z,8.78
2019-03-01T09:22:33.859Z,8.03
2019-03-01T09:25:02.628Z,7.28
2019-03-01T09:27:31.960Z,6.25
2019-03-01T09:30:03.631Z,10.48
2019-03-01T09:32:33.834Z,7.15
2019-03-01T09:35:18.429Z,8.53
2019-03-01T09:37:47.067Z,9.45
2019-03-01T09:40:15.122Z,6.53
2019-03-01T09:42:43.512Z,9.48
2019-03-01T09:45:13.647Z,7.25
2019-03-01T09:47:41.278Z,7.10
2019-03-01T09:50:09.448Z,8.03
2019-03-01T09:52:37.495Z,7.15
2019-03-01T09:55:05.688Z,7.58
2019-03-01T09:57:33.825Z,8.70
2019-03-01T10:00:03.193Z,6.25
2019-03-01T10:02:31.609Z,7.37
2019-03-01T10:05:00.395Z,7.25
2019-03-01T10:07:29.344Z,6.72
2019-03-01T10:09:58.498Z,6.70
2019-03-01T10:12:27.136Z,5.85
2019-03-01T10:14:55.468Z,8.08
2019-03-01T10:17:23.935Z,6.78
2019-03-01T10:19:52.488Z,10.32
2019-03-01T10:22:20.961Z,7.70
2019-03-01T10:24:51.022Z,10.50
2019-03-01T10:27:18.872Z,7.30
2019-03-01T10:29:47.836Z,8.60
2019-03-01T10:32:15.931Z,8.40
2019-03-01T10:34:44.225Z,9.38
2019-03-01T10:37:12.280Z,7.35
2019-03-01T10:39:40.745Z,8.75
2019-03-01T10:42:08.870Z,9.48
2019-03-01T10:44:37.595Z,12.80
2019-03-01T10:47:06.121Z,10.57
2019-03-01T10:49:34.452Z,7.95
2019-03-01T10:52:03.130Z,8.68
2019-03-01T10:54:31.263Z,12.40
2019-03-01T10:57:00.101Z,8.55
2019-03-01T10:59:28.152Z,7.10
2019-03-01T11:01:56.318Z,6.90
2019-03-01T11:04:24.727Z,7.95
2019-03-01T11:06:53.669Z,9.78
2019-03-01T11:09:22.815Z,9.43
2019-03-01T11:11:53.193Z,10.53
2019-03-01T11:14:21.293Z,6.80
2019-03-01T11:16:50.008Z,6.22
2019-03-01T11:19:18.495Z,6.90
2019-03-01T11:21:47.162Z,7.30
2019-03-01T11:24:15.963Z,11.67
2019-03-01T11:26:44.681Z,12.70
2019-03-01T11:29:13.832Z,10.58
2019-03-01T11:31:41.981Z,11.38
2019-03-01T11:34:10.491Z,11.45
2019-03-01T11:36:39.258Z,7.55
2019-03-01T11:39:07.716Z,7.95
2019-03-01T11:41:35.879Z,10.00
2019-03-01T11:44:04.377Z,8.55
2019-03-01T11:46:33.026Z,9.17
2019-03-01T11:49:01.811Z,11.03
2019-03-01T11:51:30.269Z,8.70
2019-03-01T11:53:58.772Z,9.50
2019-03-01T11:56:27.057Z,7.30
2019-03-01T11:58:55.709Z,10.50
2019-03-01T12:01:24.526Z,9.13
2019-03-01T12:03:53.178Z,8.23
2019-03-01T12:06:21.679Z,10.70
2019-03-01T12:08:50.072Z,8.80
2019-03-01T12:11:18.309Z,8.85
2019-03-01T12:13:46.554Z,7.85
2019-03-01T12:16:17.346Z,11.53
2019-03-01T12:18:45.576Z,8.13
2019-03-01T12:21:13.653Z,8.33
2019-03-01T12:23:41.928Z,8.83
2019-03-01T12:26:10.005Z,8.60
2019-03-01T12:28:38.480Z,8.50
2019-03-01T12:31:06.921Z,10.15
2019-03-01T12:33:35.372Z,7.37
2019-03-01T12:36:03.412Z,6.58
2019-03-01T12:38:31.605Z,6.85
2019-03-01T12:41:00.033Z,10.85
2019-03-01T12:43:28.161Z,7.37
2019-03-01T12:45:56.994Z,11.80
2019-03-01T12:48:25.039Z,11.28
2019-03-01T12:50:54.694Z,7.85
2019-03-01T12:53:24.792Z,9.35
2019-03-01T12:55:53.280Z,9.95
2019-03-01T12:58:21.488Z,7.60
2019-03-01T13:00:49.554Z,7.87
2019-03-01T13:03:18.528Z,7.22
2019-03-01T13:05:47.013Z,11.97
2019-03-01T13:08:15.802Z,8.25
2019-03-01T13:10:46.153Z,8.30
2019-03-01T13:13:14.275Z,8.43
2019-03-01T13:15:45.446Z,7.67
2019-03-01T13:18:15.894Z,11.97
2019-03-01T13:20:43.316Z,9.03
2019-03-01T13:23:11.376Z,9.98
2019-03-01T13:25:39.767Z,9.50
2019-03-01T13:28:07.799Z,10.28
2019-03-01T13:30:36.683Z,9.20
2019-03-01T13:33:05.209Z,6.92
2019-03-01T13:35:33.228Z,9.93
2019-03-01T13:38:03.760Z,9.53
2019-03-01T13:40:31.573Z,8.53
2019-03-01T13:43:00.269Z,9.08
2019-03-01T13:45:28.943Z,8.83
2019-03-01T13:47:57.435Z,8.93
2019-03-01T13:50:26.322Z,13.75
2019-03-01T13:52:54.362Z,10.40
2019-03-01T13:55:23.728Z,11.15
2019-03-01T13:57:52.048Z,8.95
2019-03-01T14:00:20.222Z,9.80
2019-03-01T14:02:49.040Z,8.33
2019-03-01T14:05:17.500Z,8.70
2019-03-01T14:07:46.696Z,8.03
2019-03-01T14:10:15.567Z,9.70
2019-03-01T14:12:44.006Z,8.00
2019-03-01T14:15:13.552Z,8.13
2019-03-01T14:17:42.001Z,9.93
2019-03-01T14:20:11.443Z,10.30
2019-03-01T14:22:39.600Z,8.70
2019-03-01T14:25:08.260Z,9.43
2019-03-01T14:27:37.457Z,10.70
2019-03-01T14:30:06.315Z,11.70
2019-03-01T14:32:34.720Z,10.85
2019-03-01T14:35:02.872Z,11.33
2019-03-01T14:37:31.163Z,13.98
2019-03-01T14:39:59.747Z,14.55
2019-03-01T14:42:27.846Z,15.10
2019-03-01T14:44:56.799Z,12.17
2019-03-01T14:47:25.147Z,10.35
2019-03-01T14:49:54.000Z,12.65
2019-03-01T14:52:23.024Z,8.40
2019-03-01T14:54:51.353Z,10.50
2019-03-01T14:57:22.129Z,11.88
2019-03-01T14:59:53.541Z,10.10
2019-03-01T15:02:24.168Z,7.80
2019-03-01T15:04:54.261Z,6.90
2019-03-01T15:07:22.226Z,12.82
2019-03-01T15:09:53.319Z,9.63
2019-03-01T15:12:21.260Z,11.00
2019-03-01T15:14:50.906Z,11.33
2019-03-01T15:17:21.882Z,9.50
2019-03-01T15:19:49.212Z,11.48
2019-03-01T15:22:17.564Z,10.90
2019-03-01T15:24:45.684Z,12.83
2019-03-01T15:27:15.084Z,11.53
2019-03-01T15:29:43.113Z,9.73
2019-03-01T15:32:12.543Z,12.47
2019-03-01T15:34:41.049Z,7.73
2019-03-01T15:37:09.420Z,12.85
2019-03-01T15:39:37.441Z,12.55
2019-03-01T15:42:05.819Z,12.18
2019-03-01T15:44:34.757Z,10.37
2019-03-01T15:47:03.192Z,11.28
2019-03-01T15:49:31.389Z,10.53
2019-03-01T15:51:59.552Z,11.05
2019-03-01T15:54:27.645Z,12.40
2019-03-01T15:56:56.423Z,12.85
2019-03-01T15:59:24.507Z,12.00
2019-03-01T16:01:52.589Z,14.35
2019-03-01T16:04:21.022Z,10.75
2019-03-01T16:06:49.067Z,13.60
2019-03-01T16:09:17.512Z,13.08
2019-03-01T16:11:45.544Z,12.07
2019-03-01T16:14:13.684Z,13.80
2019-03-01T16:16:42.561Z,15.28
2019-03-01T16:19:11.102Z,14.80
2019-03-01T16:21:43.135Z,15.30
2019-03-01T16:24:10.924Z,16.23
2019-03-01T16:26:39.513Z,13.70
2019-03-01T16:29:08.110Z,13.15
2019-03-01T16:31:36.343Z,13.58
2019-03-01T16:34:05.388Z,15.00
2019-03-01T16:36:46.772Z,15.30
2019-03-01T16:39:16.470Z,16.33
2019-03-01T16:41:44.824Z,13.38
2019-03-01T16:44:13.387Z,15.10
2019-03-01T16:46:42.316Z,14.03
2019-03-01T16:49:12.175Z,15.53
2019-03-01T16:51:40.640Z,16.90
2019-03-01T16:54:08.725Z,19.37
2019-03-01T16:56:38.519Z,18.82
2019-03-01T16:59:07.265Z,14.50
2019-03-01T17:01:35.344Z,17.90
2019-03-01T17:04:03.400Z,15.55
2019-03-01T17:06:31.468Z,19.25
2019-03-01T17:08:59.534Z,25.92
2019-03-01T17:11:27.575Z,19.00
2019-03-01T17:13:56.135Z,29.95
2019-03-01T17:16:24.614Z,32.15
2019-03-01T17:18:54.421Z,24.63
2019-03-01T17:21:23.337Z,23.98
2019-03-01T17:23:51.653Z,24.90
2019-03-01T17:26:19.683Z,32.73
2019-03-01T17:28:49.857Z,32.70
2019-03-01T17:31:18.008Z,17.55
2019-03-01T17:33:48.760Z,19.25
2019-03-01T17:36:16.894Z,13.60
2019-03-01T17:38:46.187Z,17.60
2019-03-01T17:41:14.570Z,14.35
2019-03-01T17:43:43.195Z,14.87
2019-03-01T17:46:11.350Z,17.45
2019-03-01T17:48:39.787Z,14.00
2019-03-01T17:51:07.824Z,16.85
2019-03-01T17:53:35.868Z,18.17
2019-03-01T17:57:50.075Z,12.40
2019-03-01T18:00:21.632Z,12.30
2019-03-01T18:02:52.083Z,13.62
2019-03-01T18:05:20.833Z,14.38
2019-03-01T18:07:49.237Z,16.32
2019-03-01T18:10:18.381Z,13.75
2019-03-01T18:12:46.968Z,14.15
2019-03-01T18:15:15.514Z,14.18
2019-03-01T18:17:43.673Z,13.53
2019-03-01T18:20:12.292Z,14.90
2019-03-01T18:22:40.749Z,18.20
2019-03-01T18:25:11.831Z,17.10
2019-03-01T18:27:40.680Z,12.98
2019-03-01T18:30:10.988Z,14.50
2019-03-01T18:32:41.747Z,14.53
2019-03-01T18:35:12.263Z,11.37
2019-03-01T18:37:41.201Z,14.37
2019-03-01T18:40:09.844Z,13.05
2019-03-01T18:42:38.840Z,11.43
2019-03-01T18:45:07.994Z,17.40
2019-03-01T18:47:36.640Z,12.00
2019-03-01T18:50:05.788Z,17.13
2019-03-01T18:52:34.201Z,16.87
2019-03-01T18:55:03.010Z,13.88
2019-03-01T18:57:31.391Z,16.50
2019-03-01T19:00:00.956Z,13.03
2019-03-01T19:02:29.600Z,15.48
2019-03-01T19:05:00.680Z,13.13
2019-03-01T19:07:28.687Z,10.58
2019-03-01T19:09:56.889Z,10.25
2019-03-01T19:12:25.389Z,13.65
2019-03-01T19:14:53.753Z,14.00
2019-03-01T19:17:22.233Z,14.10
2019-03-01T19:19:52.246Z,16.12
2019-03-01T19:22:20.335Z,14.00
2019-03-01T19:24:50.189Z,12.35
2019-03-01T19:27:18.789Z,13.28
2019-03-01T19:29:47.349Z,12.30
2019-03-01T19:32:15.655Z,12.73
2019-03-01T19:34:44.519Z,10.68
2019-03-01T19:37:13.320Z,11.47
2019-03-01T19:39:43.241Z,16.67
2019-03-01T19:42:11.344Z,10.95
2019-03-01T19:44:40.878Z,12.25
2019-03-01T19:47:11.027Z,11.93
2019-03-01T19:49:40.017Z,13.68
2019-03-01T19:52:09.447Z,15.32
2019-03-01T19:54:38.328Z,15.10
2019-03-01T19:57:06.739Z,10.30
2019-03-01T19:59:34.941Z,12.20
2019-03-01T20:02:03.022Z,11.85
2019-03-01T20:04:33.345Z,12.58
2019-03-01T20:07:01.833Z,17.57
2019-03-01T20:09:30.423Z,12.80
2019-03-01T20:11:59.285Z,11.35
2019-03-01T20:14:30.369Z,10.80
2019-03-01T20:16:59.015Z,12.95
2019-03-01T20:19:27.967Z,10.65
2019-03-01T20:21:56.119Z,9.95
2019-03-01T20:24:24.248Z,8.53
2019-03-01T20:26:53.213Z,8.63
2019-03-01T20:29:23.573Z,13.03
2019-03-01T20:31:51.754Z,9.68
2019-03-01T20:34:19.977Z,8.80
2019-03-01T20:36:49.648Z,14.23
2019-03-01T20:39:18.170Z,11.38
2019-03-01T20:41:46.823Z,9.95
2019-03-01T20:44:18.560Z,10.08
2019-03-01T20:46:45.069Z,13.50
2019-03-01T20:49:13.481Z,10.78
2019-03-01T20:51:41.980Z,13.90
2019-03-01T20:54:10.388Z,9.38
2019-03-01T20:56:39.113Z,12.73
2019-03-01T20:59:07.300Z,12.98
2019-03-01T21:01:37.244Z,9.15
2019-03-01T21:04:05.723Z,11.78
2019-03-01T21:06:34.122Z,12.03
2019-03-01T21:09:04.107Z,13.80
2019-03-01T21:11:32.828Z,10.43
2019-03-01T21:14:00.912Z,14.70
2019-03-01T21:16:29.125Z,14.70
2019-03-01T21:18:57.400Z,12.53
2019-03-01T21:21:28.928Z,11.48
2019-03-01T21:23:56.111Z,9.88
2019-03-01T21:26:24.264Z,9.13
2019-03-01T21:28:53.129Z,13.13
2019-03-01T21:31:22.754Z,12.30
2019-03-01T21:33:50.941Z,11.48
2019-03-01T21:36:23.027Z,15.10
2019-03-01T21:38:50.302Z,13.45
2019-03-01T21:41:18.524Z,16.32
2019-03-01T21:43:46.616Z,18.70
2019-03-01T21:46:15.163Z,15.78
2019-03-01T21:48:43.859Z,16.95
2019-03-01T21:51:14.811Z,12.80
2019-03-01T21:53:42.441Z,18.67
2019-03-01T21:56:10.587Z,13.18
2019-03-01T21:58:41.861Z,15.48
2019-03-01T22:01:09.329Z,16.73
2019-03-01T22:03:37.767Z,13.75
2019-03-01T22:06:06.228Z,17.92
2019-03-01T22:08:34.809Z,16.07
2019-03-01T22:11:02.995Z,14.73
2019-03-01T22:13:32.504Z,19.02
2019-03-01T22:16:02.740Z,15.25
2019-03-01T22:18:31.483Z,12.73
2019-03-01T22:20:59.785Z,18.20
2019-03-01T22:23:27.783Z,16.55
2019-03-01T22:25:56.197Z,13.28
2019-03-01T22:28:24.760Z,14.65
2019-03-01T22:30:52.901Z,18.82
2019-03-01T22:33:22.117Z,16.15
2019-03-01T22:35:50.517Z,15.23
2019-03-01T22:38:18.571Z,15.73
2019-03-01T22:40:47.176Z,14.98
2019-03-01T22:43:15.756Z,12.68
2019-03-01T22:45:45.504Z,14.25
2019-03-01T22:48:14.287Z,14.15
2019-03-01T22:50:42.787Z,13.45
2019-03-01T22:53:12.708Z,15.65
2019-03-01T22:55:42.875Z,13.37
2019-03-01T22:58:11.106Z,14.35
2019-03-01T23:01:22.718Z,14.63
2019-03-01T23:03:55.954Z,15.87
2019-03-01T23:06:24.952Z,18.30
2019-03-01T23:08:53.701Z,17.10
2019-03-01T23:11:21.781Z,16.52
2019-03-01T23:14:07.683Z,17.93
2019-03-01T23:16:36.213Z,13.78
2019-03-01T23:19:04.245Z,14.98
2019-03-01T23:21:35.849Z,16.35
2019-03-01T23:24:02.825Z,14.53
2019-03-01T23:26:31.856Z,14.53
2019-03-01T23:29:01.196Z,14.45
2019-03-01T23:31:30.039Z,16.35
2019-03-01T23:33:58.515Z,17.57
2019-03-01T23:36:28.506Z,14.47
2019-03-01T23:38:57.129Z,16.00
2019-03-01T23:41:25.172Z,16.93
2019-03-01T23:43:54.280Z,15.10
2019-03-01T23:46:25.610Z,16.40
2019-03-01T23:48:52.121Z,17.75
2019-03-01T23:51:20.304Z,18.50
2019-03-01T23:53:49.383Z,17.07
2019-03-01T23:56:17.925Z,15.23
2019-03-01T23:58:47.969Z,19.75
